createdAt,value
2018-09-08T00:00:10.375Z,30.17
2018-09-08T00:02:39.650Z,30.60
2018-09-08T00:05:08.862Z,36.17
2018-09-08T00:07:39.303Z,39.37
2018-09-08T00:10:10.891Z,37.23
2018-09-08T00:12:40.195Z,29.43
2018-09-08T00:15:14.477Z,27.57
2018-09-08T00:17:48.791Z,36.80
2018-09-08T00:20:23.091Z,38.87
2018-09-08T00:22:57.475Z,37.87
2018-09-08T00:25:31.797Z,33.10
2018-09-08T00:28:06.056Z,41.57
2018-09-08T00:30:35.283Z,29.70
2018-09-08T00:33:04.533Z,32.80
2018-09-08T00:35:33.796Z,39.90
2018-09-08T00:38:03.070Z,37.13
2018-09-08T00:40:32.895Z,38.37
2018-09-08T00:43:02.225Z,31.87
2018-09-08T00:45:31.592Z,36.70
2018-09-08T00:48:00.791Z,31.70
2018-09-08T00:50:30.017Z,32.07
2018-09-08T00:52:59.227Z,32.97
2018-09-08T00:55:28.450Z,26.40
2018-09-08T00:57:57.738Z,29.00
2018-09-08T01:00:26.993Z,31.23
2018-09-08T01:02:56.220Z,33.40
2018-09-08T01:05:25.490Z,30.63
2018-09-08T01:07:54.860Z,31.83
2018-09-08T01:10:24.094Z,29.90
2018-09-08T01:12:53.382Z,31.53
2018-09-08T01:15:22.582Z,27.63
2018-09-08T01:17:51.974Z,23.60
2018-09-08T01:20:21.195Z,21.33
2018-09-08T01:22:50.632Z,26.73
2018-09-08T01:25:19.859Z,35.50
2018-09-08T01:27:49.120Z,24.63
2018-09-08T01:30:18.463Z,27.10
2018-09-08T01:32:47.659Z,32.30
2018-09-08T01:35:16.953Z,28.53
2018-09-08T01:37:46.287Z,26.97
2018-09-08T01:40:15.495Z,26.27
2018-09-08T01:42:44.719Z,25.00
2018-09-08T01:45:14.083Z,22.00
2018-09-08T01:47:43.298Z,26.27
2018-09-08T01:50:12.557Z,22.50
2018-09-08T01:52:41.784Z,28.23
2018-09-08T01:55:10.961Z,26.83
2018-09-08T01:57:40.260Z,25.37
2018-09-08T02:00:10.150Z,30.30
2018-09-08T02:02:39.474Z,28.87
2018-09-08T02:05:08.778Z,25.80
2018-09-08T02:07:38.233Z,26.43
2018-09-08T02:10:07.576Z,23.23
2018-09-08T02:12:36.795Z,24.87
2018-09-08T02:15:06.013Z,24.23
2018-09-08T02:17:35.267Z,31.70
2018-09-08T02:20:04.631Z,24.90
2018-09-08T02:22:33.821Z,28.63
2018-09-08T02:25:03.102Z,32.57
2018-09-08T02:27:32.315Z,24.43
2018-09-08T02:30:01.563Z,23.33
2018-09-08T02:32:31.072Z,20.97
2018-09-08T02:35:00.351Z,31.67
2018-09-08T02:37:29.591Z,33.90
2018-09-08T02:39:58.799Z,27.07
2018-09-08T02:42:28.259Z,22.53
2018-09-08T02:44:57.555Z,30.83
2018-09-08T02:47:26.720Z,22.80
2018-09-08T02:50:06.842Z,24.97
2018-09-08T02:52:34.579Z,26.77
2018-09-08T02:55:02.251Z,33.83
2018-09-08T02:57:29.970Z,32.00
2018-09-08T02:59:58.297Z,37.07
2018-09-08T03:02:26.010Z,27.83
2018-09-08T03:04:53.715Z,29.90
2018-09-08T03:07:21.447Z,27.47
2018-09-08T03:09:49.341Z,30.10
2018-09-08T03:12:17.141Z,26.33
2018-09-08T03:14:44.923Z,28.13
2018-09-08T03:17:12.639Z,22.83
2018-09-08T03:19:40.335Z,23.90
2018-09-08T03:22:08.054Z,22.40
2018-09-08T03:24:36.076Z,24.50
2018-09-08T03:27:03.805Z,26.80
2018-09-08T03:29:31.547Z,27.20
2018-09-08T03:31:59.250Z,22.73
2018-09-08T03:34:27.015Z,19.40
2018-09-08T03:36:54.738Z,25.77
2018-09-08T03:39:22.479Z,23.77
2018-09-08T03:41:50.165Z,21.20
2018-09-08T03:44:18.120Z,23.80
2018-09-08T03:46:45.856Z,27.43
2018-09-08T03:49:13.603Z,30.00
2018-09-08T03:51:41.382Z,23.83
2018-09-08T03:54:09.083Z,26.00
2018-09-08T03:56:36.854Z,27.37
2018-09-08T03:59:04.693Z,30.83
2018-09-08T04:01:32.332Z,21.43
2018-09-08T04:04:01.618Z,21.70
2018-09-08T04:06:30.930Z,24.00
2018-09-08T04:09:00.247Z,23.93
2018-09-08T04:11:29.521Z,22.93
2018-09-08T04:13:58.834Z,26.20
2018-09-08T04:16:28.380Z,26.20
2018-09-08T04:18:57.727Z,21.73
2018-09-08T04:21:26.982Z,20.87
2018-09-08T04:23:56.232Z,18.57
2018-09-08T04:26:25.602Z,22.70
2018-09-08T04:28:54.948Z,25.07
2018-09-08T04:31:24.995Z,19.90
2018-09-08T04:33:54.251Z,29.83
2018-09-08T04:36:23.639Z,22.50
2018-09-08T04:38:53.719Z,25.27
2018-09-08T04:41:23.371Z,20.30
2018-09-08T04:43:52.623Z,17.90
2018-09-08T04:46:21.939Z,24.57
2018-09-08T04:48:51.200Z,26.60
2018-09-08T04:51:22.642Z,21.50
2018-09-08T04:53:52.787Z,24.63
2018-09-08T04:56:26.428Z,28.20
2018-09-08T04:58:55.883Z,28.37
2018-09-08T05:01:25.466Z,31.23
2018-09-08T05:03:55.207Z,26.03
2018-09-08T05:06:24.426Z,30.40
2018-09-08T05:08:54.271Z,29.13
2018-09-08T05:11:26.164Z,26.30
2018-09-08T05:13:56.203Z,21.10
2018-09-08T05:16:26.683Z,22.50
2018-09-08T05:18:56.144Z,25.70
2018-09-08T05:21:26.255Z,27.13
2018-09-08T05:23:56.663Z,26.40
2018-09-08T05:26:26.379Z,20.30
2018-09-08T05:28:56.368Z,25.60
2018-09-08T05:31:25.760Z,24.53
2018-09-08T05:33:55.327Z,35.70
2018-09-08T05:36:26.129Z,28.63
2018-09-08T05:38:57.003Z,32.27
2018-09-08T05:41:26.273Z,33.13
2018-09-08T05:43:56.481Z,40.07
2018-09-08T05:46:27.832Z,39.30
2018-09-08T05:48:57.798Z,30.80
2018-09-08T05:51:27.029Z,30.73
2018-09-08T05:53:56.291Z,34.90
2018-09-08T05:56:25.497Z,36.67
2018-09-08T05:58:55.583Z,25.50
2018-09-08T06:01:24.811Z,28.23
2018-09-08T06:03:54.058Z,24.97
2018-09-08T06:06:23.355Z,17.67
2018-09-08T06:08:52.641Z,21.20
2018-09-08T06:11:21.925Z,29.10
2018-09-08T06:13:51.297Z,24.10
2018-09-08T06:16:20.561Z,23.13
2018-09-08T06:18:49.826Z,36.80
2018-09-08T06:21:19.093Z,31.40
2018-09-08T06:23:48.316Z,24.00
2018-09-08T06:26:17.516Z,25.10
2018-09-08T06:28:46.790Z,21.93
2018-09-08T06:31:16.004Z,20.30
2018-09-08T06:33:45.220Z,19.27
2018-09-08T06:36:14.503Z,27.73
2018-09-08T06:38:43.706Z,20.83
2018-09-08T06:41:12.892Z,27.53
2018-09-08T06:43:42.191Z,19.97
2018-09-08T06:46:11.404Z,21.27
2018-09-08T06:48:40.664Z,22.00
2018-09-08T06:51:09.938Z,23.03
2018-09-08T06:53:39.229Z,25.87
2018-09-08T06:56:08.608Z,20.97
2018-09-08T06:58:37.866Z,20.37
2018-09-08T07:01:07.199Z,25.17
2018-09-08T07:03:36.609Z,21.17
2018-09-08T07:06:05.885Z,21.13
2018-09-08T07:08:35.074Z,19.20
2018-09-08T07:11:04.310Z,18.63
2018-09-08T07:13:33.525Z,14.33
2018-09-08T07:16:03.148Z,14.90
2018-09-08T07:18:32.471Z,16.97
2018-09-08T07:21:02.088Z,11.70
2018-09-08T07:23:31.894Z,10.30
2018-09-08T07:26:01.219Z,8.60
2018-09-08T07:28:30.676Z,11.10
2018-09-08T07:30:59.977Z,8.70
2018-09-08T07:33:29.702Z,11.57
2018-09-08T07:35:58.931Z,12.77
2018-09-08T07:38:28.607Z,9.37
2018-09-08T07:40:57.833Z,11.70
2018-09-08T07:43:27.157Z,7.00
2018-09-08T07:45:56.423Z,9.10
2018-09-08T07:48:26.338Z,8.77
2018-09-08T07:50:55.863Z,5.80
2018-09-08T07:53:25.077Z,8.13
2018-09-08T07:55:54.864Z,8.03
2018-09-08T07:58:24.143Z,9.13
2018-09-08T08:00:53.492Z,8.60
2018-09-08T08:03:22.780Z,5.67
2018-09-08T08:05:52.041Z,7.30
2018-09-08T08:08:21.311Z,8.23
2018-09-08T08:10:50.574Z,13.80
2018-09-08T08:13:19.862Z,7.90
2018-09-08T08:15:49.145Z,8.70
2018-09-08T08:18:18.431Z,8.43
2018-09-08T08:20:47.583Z,9.63
2018-09-08T08:23:16.815Z,8.00
2018-09-08T08:25:46.342Z,6.87
2018-09-08T08:28:15.791Z,13.17
2018-09-08T08:30:45.069Z,10.67
2018-09-08T08:33:26.423Z,8.00
2018-09-08T08:35:55.823Z,7.60
2018-09-08T08:38:25.133Z,6.10
2018-09-08T08:40:54.647Z,7.27
2018-09-08T08:43:24.014Z,12.63
2018-09-08T08:45:53.220Z,10.37
2018-09-08T08:48:22.562Z,10.47
2018-09-08T08:51:02.532Z,8.93
2018-09-08T08:53:42.689Z,9.63
2018-09-08T08:56:11.975Z,5.40
2018-09-08T08:58:41.234Z,6.20
2018-09-08T09:01:10.776Z,7.93
2018-09-08T09:03:40.072Z,13.77
2018-09-08T09:06:09.313Z,7.43
2018-09-08T09:08:40.348Z,8.80
2018-09-08T09:11:09.407Z,10.63
2018-09-08T09:13:38.820Z,8.23
2018-09-08T09:16:08.034Z,10.30
2018-09-08T09:18:48.555Z,8.43
2018-09-08T09:21:28.543Z,9.43
2018-09-08T09:24:47.751Z,9.70
2018-09-08T09:27:16.826Z,8.30
2018-09-08T09:29:46.059Z,12.37
2018-09-08T09:32:15.351Z,10.53
2018-09-08T09:34:44.567Z,9.83
2018-09-08T09:37:13.842Z,9.03
2018-09-08T09:39:43.048Z,9.60
2018-09-08T09:42:12.358Z,6.50
2018-09-08T09:44:41.788Z,6.20
2018-09-08T09:47:11.064Z,7.20
2018-09-08T09:49:40.349Z,6.20
2018-09-08T09:52:09.596Z,8.13
2018-09-08T09:54:38.837Z,8.70
2018-09-08T09:57:08.057Z,8.50
2018-09-08T09:59:39.912Z,8.80
2018-09-08T10:02:09.833Z,10.27
2018-09-08T10:04:39.079Z,7.73
2018-09-08T10:07:09.846Z,7.57
2018-09-08T10:09:41.517Z,9.30
2018-09-08T10:12:10.741Z,11.77
2018-09-08T10:14:40.126Z,7.10
2018-09-08T10:17:09.422Z,12.33
2018-09-08T10:19:38.631Z,8.83
2018-09-08T10:22:07.845Z,7.87
2018-09-08T10:24:37.452Z,7.07
2018-09-08T10:27:06.971Z,7.47
2018-09-08T10:29:37.040Z,6.87
2018-09-08T10:32:07.500Z,8.97
2018-09-08T10:34:36.367Z,6.27
2018-09-08T10:37:05.855Z,9.53
2018-09-08T10:39:35.055Z,10.53
2018-09-08T10:42:04.324Z,8.80
2018-09-08T10:44:33.520Z,6.40
2018-09-08T10:47:02.791Z,6.97
2018-09-08T10:49:32.018Z,9.73
2018-09-08T10:52:39.458Z,8.90
2018-09-08T10:55:08.750Z,7.90
2018-09-08T10:57:38.003Z,9.50
2018-09-08T11:00:07.914Z,11.23
2018-09-08T11:02:37.323Z,11.00
2018-09-08T11:05:06.454Z,7.70
2018-09-08T11:07:35.669Z,9.80
2018-09-08T11:10:05.046Z,6.77
2018-09-08T11:12:34.395Z,7.87
2018-09-08T11:15:03.761Z,6.40
2018-09-08T11:17:32.936Z,6.80
2018-09-08T11:20:02.199Z,7.50
2018-09-08T11:22:31.386Z,5.80
2018-09-08T11:25:00.606Z,7.40
2018-09-08T11:27:29.819Z,7.27
2018-09-08T11:29:59.165Z,7.10
2018-09-08T11:32:28.419Z,5.80
2018-09-08T11:34:57.636Z,6.17
2018-09-08T11:37:26.885Z,7.73
2018-09-08T11:39:56.083Z,6.13
2018-09-08T11:42:25.312Z,9.20
2018-09-08T11:44:54.496Z,6.50
2018-09-08T11:47:23.927Z,6.13
2018-09-08T11:49:53.096Z,6.70
2018-09-08T11:52:22.380Z,8.70
2018-09-08T11:54:51.637Z,5.90
2018-09-08T11:57:20.841Z,6.60
2018-09-08T11:59:50.080Z,6.93
2018-09-08T12:02:19.392Z,6.90
2018-09-08T12:04:48.617Z,6.40
2018-09-08T12:07:17.827Z,8.17
2018-09-08T12:09:47.105Z,8.43
2018-09-08T12:12:16.333Z,6.60
2018-09-08T12:14:45.632Z,13.03
2018-09-08T12:17:14.960Z,7.80
2018-09-08T12:19:44.292Z,8.90
2018-09-08T12:22:13.578Z,6.80
2018-09-08T12:24:42.849Z,5.93
2018-09-08T12:27:12.076Z,7.20
2018-09-08T12:29:41.288Z,6.97
2018-09-08T12:32:11.199Z,6.33
2018-09-08T12:34:40.440Z,8.57
2018-09-08T12:37:09.751Z,5.30
2018-09-08T12:39:39.022Z,6.20
2018-09-08T12:42:08.294Z,6.33
2018-09-08T12:44:37.525Z,6.63
2018-09-08T12:47:06.830Z,13.13
2018-09-08T12:49:35.996Z,11.13
2018-09-08T12:52:05.268Z,5.23
2018-09-08T12:54:34.504Z,5.83
2018-09-08T12:57:03.747Z,8.37
2018-09-08T12:59:32.989Z,6.30
2018-09-08T13:02:02.219Z,6.13
2018-09-08T13:04:31.533Z,6.53
2018-09-08T13:07:00.856Z,5.97
2018-09-08T13:09:30.064Z,5.80
2018-09-08T13:12:00.347Z,5.80
2018-09-08T13:14:30.315Z,4.70
2018-09-08T13:17:00.589Z,5.97
2018-09-08T13:19:30.272Z,7.60
2018-09-08T13:22:01.061Z,5.60
2018-09-08T13:24:30.585Z,6.93
2018-09-08T13:27:00.068Z,16.80
2018-09-08T13:29:30.043Z,5.13
2018-09-08T13:31:59.552Z,5.43
2018-09-08T13:34:29.090Z,5.43
2018-09-08T13:36:59.521Z,5.70
2018-09-08T13:39:29.554Z,6.90
2018-09-08T13:42:03.303Z,5.00
2018-09-08T13:44:32.875Z,6.00
2018-09-08T13:47:02.952Z,4.97
2018-09-08T13:49:33.017Z,5.53
2018-09-08T13:52:02.448Z,5.27
2018-09-08T13:54:32.240Z,6.70
2018-09-08T13:57:01.907Z,5.60
2018-09-08T13:59:31.657Z,8.40
2018-09-08T14:02:01.351Z,5.80
2018-09-08T14:04:31.213Z,5.93
2018-09-08T14:07:00.813Z,6.83
2018-09-08T14:09:30.291Z,7.30
2018-09-08T14:12:00.494Z,7.13
2018-09-08T14:14:30.159Z,5.50
2018-09-08T14:16:59.813Z,8.30
2018-09-08T14:19:29.425Z,6.40
2018-09-08T14:21:59.303Z,6.10
2018-09-08T14:24:28.864Z,5.50
2018-09-08T14:26:58.945Z,5.83
2018-09-08T14:29:29.120Z,5.00
2018-09-08T14:31:59.389Z,6.77
2018-09-08T14:34:28.621Z,6.27
2018-09-08T14:36:57.863Z,5.80
2018-09-08T14:39:27.141Z,4.77
2018-09-08T14:41:56.387Z,5.00
2018-09-08T14:44:26.126Z,5.30
2018-09-08T14:46:55.315Z,6.73
2018-09-08T14:49:24.553Z,13.80
2018-09-08T14:51:53.800Z,6.60
2018-09-08T14:54:23.139Z,5.90
2018-09-08T14:56:52.478Z,4.87
2018-09-08T14:59:21.711Z,5.30
2018-09-08T15:01:51.042Z,6.30
2018-09-08T15:04:20.294Z,6.10
2018-09-08T15:06:49.475Z,5.20
2018-09-08T15:09:18.818Z,5.40
2018-09-08T15:11:48.159Z,6.50
2018-09-08T15:14:17.547Z,4.90
2018-09-08T15:16:46.813Z,7.20
2018-09-08T15:19:16.044Z,5.10
2018-09-08T15:21:45.419Z,4.93
2018-09-08T15:24:14.652Z,5.83
2018-09-08T15:26:43.851Z,9.20
2018-09-08T15:29:13.099Z,4.90
2018-09-08T15:31:42.351Z,5.83
2018-09-08T15:34:11.635Z,4.50
2018-09-08T15:36:40.929Z,5.63
2018-09-08T15:39:11.217Z,4.43
2018-09-08T15:41:41.364Z,5.07
2018-09-08T15:44:10.656Z,5.23
2018-09-08T15:46:39.946Z,5.10
2018-09-08T15:49:09.202Z,5.40
2018-09-08T15:51:38.810Z,5.70
2018-09-08T15:54:08.252Z,8.20
2018-09-08T15:56:37.682Z,4.90
2018-09-08T15:59:08.305Z,5.43
2018-09-08T16:01:37.615Z,5.70
2018-09-08T16:04:06.928Z,6.00
2018-09-08T16:06:43.017Z,6.00
2018-09-08T16:09:12.911Z,7.37
2018-09-08T16:11:42.264Z,5.53
2018-09-08T16:14:11.545Z,4.83
2018-09-08T16:16:41.703Z,5.17
2018-09-08T16:19:13.204Z,4.53
2018-09-08T16:21:42.512Z,4.10
2018-09-08T16:24:11.869Z,5.00
2018-09-08T16:26:41.546Z,5.83
2018-09-08T16:29:10.820Z,10.50
2018-09-08T16:31:40.088Z,5.10
2018-09-08T16:34:09.972Z,4.83
2018-09-08T16:36:39.438Z,5.27
2018-09-08T16:39:11.036Z,5.03
2018-09-08T16:41:40.601Z,4.73
2018-09-08T16:44:10.702Z,4.30
2018-09-08T16:46:40.134Z,5.50
2018-09-08T16:49:09.487Z,4.60
2018-09-08T16:51:38.983Z,5.30
2018-09-08T16:54:08.440Z,5.27
2018-09-08T16:56:54.341Z,4.83
2018-09-08T16:59:23.711Z,4.63
2018-09-08T17:01:54.066Z,5.20
2018-09-08T17:04:26.997Z,4.40
2018-09-08T17:06:56.334Z,5.30
2018-09-08T17:09:25.693Z,4.50
2018-09-08T17:11:54.998Z,5.13
2018-09-08T17:14:24.444Z,4.60
2018-09-08T17:16:53.747Z,5.03
2018-09-08T17:19:24.370Z,5.37
2018-09-08T17:21:53.896Z,5.50
2018-09-08T17:24:23.181Z,5.40
2018-09-08T17:26:52.603Z,5.03
2018-09-08T17:29:21.907Z,6.57
2018-09-08T17:31:51.247Z,4.93
2018-09-08T17:34:20.505Z,5.67
2018-09-08T17:36:49.816Z,6.13
2018-09-08T17:39:19.079Z,7.03
2018-09-08T17:41:48.447Z,6.00
2018-09-08T17:44:17.709Z,14.57
2018-09-08T17:46:50.986Z,5.30
2018-09-08T17:51:59.403Z,5.83
2018-09-08T17:54:31.471Z,10.03
2018-09-08T17:57:01.368Z,6.50
2018-09-08T17:59:30.943Z,5.87
2018-09-08T18:02:01.544Z,6.40
2018-09-08T18:04:31.297Z,8.73
2018-09-08T18:07:01.037Z,7.10
2018-09-08T18:09:32.140Z,9.13
2018-09-08T18:12:02.048Z,6.33
2018-09-08T18:14:31.592Z,6.63
2018-09-08T18:17:01.334Z,6.90
2018-09-08T18:19:32.936Z,8.33
2018-09-08T18:22:11.803Z,16.70
2018-09-08T18:24:41.861Z,12.00
2018-09-08T18:27:11.707Z,11.00
2018-09-08T18:32:35.978Z,12.93
2018-09-08T18:35:09.398Z,10.80
2018-09-08T18:37:39.365Z,9.73
2018-09-08T18:40:09.377Z,8.30
2018-09-08T18:42:39.207Z,7.67
2018-09-08T18:45:08.853Z,7.37
2018-09-08T18:47:38.717Z,8.23
2018-09-08T18:50:14.820Z,9.03
2018-09-08T18:52:44.644Z,8.70
2018-09-08T18:55:14.478Z,10.80
2018-09-08T18:57:44.655Z,13.63
2018-09-08T19:00:14.587Z,8.73
2018-09-08T19:02:44.553Z,8.23
2018-09-08T19:05:14.272Z,9.73
2018-09-08T19:07:44.044Z,8.80
2018-09-08T19:10:14.331Z,14.27
2018-09-08T19:12:44.011Z,12.73
2018-09-08T19:15:16.022Z,10.63
2018-09-08T19:17:46.235Z,10.80
2018-09-08T19:20:21.089Z,10.70
2018-09-08T19:22:51.616Z,12.47
2018-09-08T19:25:22.895Z,11.13
2018-09-08T19:27:57.103Z,12.20
2018-09-08T19:30:26.866Z,14.00
2018-09-08T19:32:56.696Z,23.13
2018-09-08T19:35:31.656Z,21.23
2018-09-08T19:38:01.556Z,20.37
2018-09-08T19:40:36.633Z,17.17
2018-09-08T19:43:06.336Z,13.33
2018-09-08T19:45:37.074Z,16.40
2018-09-08T19:48:12.736Z,14.10
2018-09-08T19:50:42.428Z,15.40
2018-09-08T19:53:17.176Z,16.00
2018-09-08T19:55:46.773Z,17.33
2018-09-08T19:58:21.921Z,13.37
2018-09-08T20:00:51.594Z,16.40
2018-09-08T20:03:21.383Z,15.57
2018-09-08T20:05:51.280Z,15.80
2018-09-08T20:08:21.118Z,15.63
2018-09-08T20:10:52.005Z,14.10
2018-09-08T20:13:21.758Z,17.03
2018-09-08T20:15:52.166Z,17.00
2018-09-08T20:18:22.025Z,16.00
2018-09-08T20:20:51.751Z,17.83
2018-09-08T20:23:22.848Z,13.70
2018-09-08T20:28:48.881Z,14.10
2018-09-08T20:31:19.194Z,16.73
2018-09-08T20:33:49.097Z,16.73
2018-09-08T20:36:19.649Z,17.13
2018-09-08T20:38:49.598Z,16.37
2018-09-08T20:41:19.340Z,14.30
2018-09-08T20:43:49.214Z,17.23
2018-09-08T20:46:19.401Z,18.60
2018-09-08T20:48:49.313Z,15.73
2018-09-08T20:51:19.114Z,16.53
2018-09-08T20:53:48.870Z,14.43
2018-09-08T20:56:18.768Z,21.23
2018-09-08T20:58:48.463Z,16.60
2018-09-08T21:01:18.416Z,15.27
2018-09-08T21:03:48.065Z,17.27
2018-09-08T21:06:17.908Z,24.87
2018-09-08T21:08:47.676Z,13.73
2018-09-08T21:11:17.535Z,17.33
2018-09-08T21:13:47.387Z,14.77
2018-09-08T21:16:17.715Z,15.27
2018-09-08T21:18:47.257Z,16.93
2018-09-08T21:21:17.354Z,17.23
2018-09-08T21:23:47.313Z,17.67
2018-09-08T21:26:16.981Z,19.93
2018-09-08T21:28:46.877Z,18.53
2018-09-08T21:31:16.348Z,20.50
2018-09-08T21:33:45.704Z,30.10
2018-09-08T21:36:15.236Z,30.80
2018-09-08T21:38:44.631Z,27.93
2018-09-08T21:41:13.933Z,27.53
2018-09-08T21:43:43.606Z,31.30
2018-09-08T21:46:12.924Z,29.20
2018-09-08T21:48:43.107Z,35.93
2018-09-08T21:51:12.918Z,28.47
2018-09-08T21:53:42.918Z,28.17
2018-09-08T21:56:13.051Z,25.60
2018-09-08T21:58:42.876Z,26.63
2018-09-08T22:01:17.663Z,21.70
2018-09-08T22:03:47.616Z,24.23
2018-09-08T22:06:17.153Z,20.43
2018-09-08T22:08:47.336Z,23.33
2018-09-08T22:11:17.307Z,24.90
2018-09-08T22:13:47.167Z,21.97
2018-09-08T22:16:16.881Z,18.30
2018-09-08T22:18:46.857Z,26.63
2018-09-08T22:21:16.396Z,21.97
2018-09-08T22:23:45.882Z,22.90
2018-09-08T22:26:15.501Z,25.87
2018-09-08T22:28:45.092Z,26.10
2018-09-08T22:31:14.870Z,35.50
2018-09-08T22:33:45.662Z,20.20
2018-09-08T22:36:15.146Z,17.13
2018-09-08T22:38:44.560Z,24.17
2018-09-08T22:41:14.357Z,19.27
2018-09-08T22:43:43.688Z,25.40
2018-09-08T22:46:12.991Z,20.33
2018-09-08T22:48:42.303Z,20.87
2018-09-08T22:51:11.630Z,18.40
2018-09-08T22:53:40.898Z,23.10
2018-09-08T22:56:10.479Z,20.10
2018-09-08T22:58:39.803Z,17.10
2018-09-08T23:01:09.086Z,17.97
2018-09-08T23:03:38.319Z,21.23
2018-09-08T23:06:08.241Z,18.47
2018-09-08T23:08:37.594Z,17.83
2018-09-08T23:11:06.906Z,20.93
2018-09-08T23:13:36.209Z,27.13
2018-09-08T23:16:05.985Z,23.20
2018-09-08T23:18:35.251Z,21.10
2018-09-08T23:21:04.871Z,22.73
2018-09-08T23:23:34.105Z,21.60
2018-09-08T23:26:03.349Z,22.83
2018-09-08T23:28:32.866Z,23.90
2018-09-08T23:31:02.118Z,21.90
2018-09-08T23:33:31.348Z,23.50
2018-09-08T23:36:00.583Z,21.57
2018-09-08T23:38:29.761Z,27.50
2018-09-08T23:40:59.047Z,20.87
2018-09-08T23:43:28.239Z,24.20
2018-09-08T23:45:57.583Z,23.50
2018-09-08T23:48:26.791Z,24.53
2018-09-08T23:50:56.000Z,22.37
2018-09-08T23:53:25.231Z,19.20
2018-09-08T23:55:54.531Z,22.17
2018-09-08T23:58:23.735Z,23.07
